sensor_id;sensor_type;location;lat;lon;timestamp;P1;durP1;ratioP1;P2;durP2;ratioP2
42682;SDS011;28293;50.930;3.464;2024-01-11T00:02:13;42.72;;;24.17;;
42682;SDS011;28293;50.930;3.464;2024-01-11T00:04:39;41.95;;;23.48;;
42682;SDS011;28293;50.930;3.464;2024-01-11T00:07:05;38.22;;;24.52;;
42682;SDS011;28293;50.930;3.464;2024-01-11T00:09:31;35.38;;;21.95;;
42682;SDS011;28293;50.930;3.464;2024-01-11T00:11:56;45.58;;;22.42;;
42682;SDS011;28293;50.930;3.464;2024-01-11T00:14:22;41.38;;;23.80;;
42682;SDS011;28293;50.930;3.464;2024-01-11T00:16:48;38.05;;;23.13;;
42682;SDS011;28293;50.930;3.464;2024-01-11T00:19:13;40.80;;;24.00;;
42682;SDS011;28293;50.930;3.464;2024-01-11T00:21:39;40.35;;;23.25;;
42682;SDS011;28293;50.930;3.464;2024-01-11T00:24:05;35.95;;;22.38;;
42682;SDS011;28293;50.930;3.464;2024-01-11T00:26:31;41.67;;;22.83;;
42682;SDS011;28293;50.930;3.464;2024-01-11T00:28:56;39.45;;;23.30;;
42682;SDS011;28293;50.930;3.464;2024-01-11T00:31:22;39.30;;;23.23;;
42682;SDS011;28293;50.930;3.464;2024-01-11T00:33:47;39.15;;;22.73;;
42682;SDS011;28293;50.930;3.464;2024-01-11T00:36:19;40.30;;;22.52;;
42682;SDS011;28293;50.930;3.464;2024-01-11T00:38:45;38.65;;;22.63;;
42682;SDS011;28293;50.930;3.464;2024-01-11T00:41:11;40.00;;;23.98;;
42682;SDS011;28293;50.930;3.464;2024-01-11T00:43:36;39.03;;;23.48;;
42682;SDS011;28293;50.930;3.464;2024-01-11T00:46:02;40.67;;;23.90;;
42682;SDS011;28293;50.930;3.464;2024-01-11T00:48:28;42.90;;;23.77;;
42682;SDS011;28293;50.930;3.464;2024-01-11T00:50:53;38.88;;;23.23;;
42682;SDS011;28293;50.930;3.464;2024-01-11T00:53:21;37.22;;;22.30;;
42682;SDS011;28293;50.930;3.464;2024-01-11T00:55:47;43.75;;;24.52;;
42682;SDS011;28293;50.930;3.464;2024-01-11T00:58:13;41.85;;;23.25;;
42682;SDS011;28293;50.930;3.464;2024-01-11T01:00:38;43.38;;;24.63;;
42682;SDS011;28293;50.930;3.464;2024-01-11T01:03:04;41.95;;;24.40;;
42682;SDS011;28293;50.930;3.464;2024-01-11T01:05:29;37.85;;;22.67;;
42682;SDS011;28293;50.930;3.464;2024-01-11T01:07:55;39.70;;;22.98;;
42682;SDS011;28293;50.930;3.464;2024-01-11T01:10:21;37.15;;;22.73;;
42682;SDS011;28293;50.930;3.464;2024-01-11T01:12:46;39.97;;;22.25;;
42682;SDS011;28293;50.930;3.464;2024-01-11T01:15:12;37.78;;;22.52;;
42682;SDS011;28293;50.930;3.464;2024-01-11T01:17:39;37.60;;;23.10;;
42682;SDS011;28293;50.930;3.464;2024-01-11T01:20:05;38.92;;;22.45;;
42682;SDS011;28293;50.930;3.464;2024-01-11T01:22:31;39.13;;;22.02;;
42682;SDS011;28293;50.930;3.464;2024-01-11T01:24:56;39.25;;;23.48;;
42682;SDS011;28293;50.930;3.464;2024-01-11T01:27:22;38.42;;;22.65;;
42682;SDS011;28293;50.930;3.464;2024-01-11T01:29:48;38.03;;;22.08;;
42682;SDS011;28293;50.930;3.464;2024-01-11T01:32:14;39.67;;;22.80;;
42682;SDS011;28293;50.930;3.464;2024-01-11T01:34:39;41.15;;;24.00;;
42682;SDS011;28293;50.930;3.464;2024-01-11T01:37:05;38.05;;;22.88;;
42682;SDS011;28293;50.930;3.464;2024-01-11T01:39:31;42.15;;;23.67;;
42682;SDS011;28293;50.930;3.464;2024-01-11T01:41:56;40.10;;;24.02;;
42682;SDS011;28293;50.930;3.464;2024-01-11T01:44:22;41.75;;;24.30;;
42682;SDS011;28293;50.930;3.464;2024-01-11T01:46:47;45.13;;;24.80;;
42682;SDS011;28293;50.930;3.464;2024-01-11T01:49:14;39.75;;;24.02;;
42682;SDS011;28293;50.930;3.464;2024-01-11T01:51:42;40.45;;;24.33;;
42682;SDS011;28293;50.930;3.464;2024-01-11T01:54:08;41.13;;;24.52;;
42682;SDS011;28293;50.930;3.464;2024-01-11T01:56:34;41.42;;;24.00;;
42682;SDS011;28293;50.930;3.464;2024-01-11T01:59:00;42.00;;;23.85;;
42682;SDS011;28293;50.930;3.464;2024-01-11T02:01:27;38.88;;;23.30;;
42682;SDS011;28293;50.930;3.464;2024-01-11T02:03:53;43.38;;;23.67;;
42682;SDS011;28293;50.930;3.464;2024-01-11T02:06:19;41.58;;;25.40;;
42682;SDS011;28293;50.930;3.464;2024-01-11T02:08:48;41.85;;;24.20;;
42682;SDS011;28293;50.930;3.464;2024-01-11T02:11:17;43.47;;;22.88;;
42682;SDS011;28293;50.930;3.464;2024-01-11T02:13:44;38.72;;;22.40;;
42682;SDS011;28293;50.930;3.464;2024-01-11T02:16:11;39.70;;;23.52;;
42682;SDS011;28293;50.930;3.464;2024-01-11T02:18:37;41.08;;;23.83;;
42682;SDS011;28293;50.930;3.464;2024-01-11T02:21:04;42.33;;;24.02;;
42682;SDS011;28293;50.930;3.464;2024-01-11T02:23:34;39.28;;;23.63;;
42682;SDS011;28293;50.930;3.464;2024-01-11T02:26:07;39.45;;;23.75;;
42682;SDS011;28293;50.930;3.464;2024-01-11T02:28:33;37.90;;;22.65;;
42682;SDS011;28293;50.930;3.464;2024-01-11T02:30:58;40.60;;;23.38;;
42682;SDS011;28293;50.930;3.464;2024-01-11T02:33:24;36.97;;;22.88;;
42682;SDS011;28293;50.930;3.464;2024-01-11T02:35:49;41.17;;;22.40;;
42682;SDS011;28293;50.930;3.464;2024-01-11T02:38:16;39.00;;;23.83;;
42682;SDS011;28293;50.930;3.464;2024-01-11T02:40:42;38.72;;;22.55;;
42682;SDS011;28293;50.930;3.464;2024-01-11T02:43:12;38.83;;;23.30;;
42682;SDS011;28293;50.930;3.464;2024-01-11T02:45:38;37.70;;;23.85;;
42682;SDS011;28293;50.930;3.464;2024-01-11T02:48:04;39.00;;;23.63;;
42682;SDS011;28293;50.930;3.464;2024-01-11T02:50:29;39.97;;;22.77;;
42682;SDS011;28293;50.930;3.464;2024-01-11T02:52:55;41.28;;;23.58;;
42682;SDS011;28293;50.930;3.464;2024-01-11T02:55:21;42.22;;;24.13;;
42682;SDS011;28293;50.930;3.464;2024-01-11T02:57:46;35.80;;;23.95;;
42682;SDS011;28293;50.930;3.464;2024-01-11T03:00:12;38.92;;;23.92;;
42682;SDS011;28293;50.930;3.464;2024-01-11T03:02:38;38.60;;;23.02;;
42682;SDS011;28293;50.930;3.464;2024-01-11T03:05:03;41.97;;;23.13;;
42682;SDS011;28293;50.930;3.464;2024-01-11T03:07:29;38.10;;;23.60;;
42682;SDS011;28293;50.930;3.464;2024-01-11T03:09:55;38.90;;;23.95;;
42682;SDS011;28293;50.930;3.464;2024-01-11T03:12:21;39.05;;;23.70;;
42682;SDS011;28293;50.930;3.464;2024-01-11T03:14:47;38.65;;;23.58;;
42682;SDS011;28293;50.930;3.464;2024-01-11T03:17:13;38.70;;;22.75;;
42682;SDS011;28293;50.930;3.464;2024-01-11T03:19:41;39.00;;;23.00;;
42682;SDS011;28293;50.930;3.464;2024-01-11T03:22:07;38.45;;;22.83;;
42682;SDS011;28293;50.930;3.464;2024-01-11T03:24:33;36.35;;;23.55;;
42682;SDS011;28293;50.930;3.464;2024-01-11T03:27:02;39.10;;;24.70;;
42682;SDS011;28293;50.930;3.464;2024-01-11T03:29:28;40.67;;;23.80;;
42682;SDS011;28293;50.930;3.464;2024-01-11T03:31:53;36.80;;;22.33;;
42682;SDS011;28293;50.930;3.464;2024-01-11T03:34:19;39.03;;;22.48;;
42682;SDS011;28293;50.930;3.464;2024-01-11T03:36:45;36.35;;;22.08;;
42682;SDS011;28293;50.930;3.464;2024-01-11T03:39:10;41.42;;;24.17;;
42682;SDS011;28293;50.930;3.464;2024-01-11T03:41:36;38.72;;;23.02;;
42682;SDS011;28293;50.930;3.464;2024-01-11T03:44:02;41.05;;;24.77;;
42682;SDS011;28293;50.930;3.464;2024-01-11T03:46:27;42.15;;;24.63;;
42682;SDS011;28293;50.930;3.464;2024-01-11T03:48:53;45.13;;;24.88;;
42682;SDS011;28293;50.930;3.464;2024-01-11T03:51:20;39.63;;;24.65;;
42682;SDS011;28293;50.930;3.464;2024-01-11T03:53:46;38.75;;;23.42;;
42682;SDS011;28293;50.930;3.464;2024-01-11T03:56:11;41.80;;;24.10;;
42682;SDS011;28293;50.930;3.464;2024-01-11T03:58:37;41.75;;;24.98;;
42682;SDS011;28293;50.930;3.464;2024-01-11T04:01:06;38.30;;;24.23;;
42682;SDS011;28293;50.930;3.464;2024-01-11T04:03:35;42.22;;;25.25;;
42682;SDS011;28293;50.930;3.464;2024-01-11T04:06:01;40.42;;;25.27;;
42682;SDS011;28293;50.930;3.464;2024-01-11T04:08:26;42.03;;;23.75;;
42682;SDS011;28293;50.930;3.464;2024-01-11T04:10:52;41.25;;;24.10;;
42682;SDS011;28293;50.930;3.464;2024-01-11T04:13:18;42.60;;;24.30;;
42682;SDS011;28293;50.930;3.464;2024-01-11T04:15:44;40.78;;;23.77;;
42682;SDS011;28293;50.930;3.464;2024-01-11T04:18:09;43.15;;;24.85;;
42682;SDS011;28293;50.930;3.464;2024-01-11T04:20:35;44.53;;;26.23;;
42682;SDS011;28293;50.930;3.464;2024-01-11T04:23:00;48.40;;;27.17;;
42682;SDS011;28293;50.930;3.464;2024-01-11T04:25:26;45.28;;;26.00;;
42682;SDS011;28293;50.930;3.464;2024-01-11T04:27:51;41.78;;;24.73;;
42682;SDS011;28293;50.930;3.464;2024-01-11T04:30:17;43.47;;;25.80;;
42682;SDS011;28293;50.930;3.464;2024-01-11T04:32:43;47.10;;;26.08;;
42682;SDS011;28293;50.930;3.464;2024-01-11T04:35:09;43.35;;;25.27;;
42682;SDS011;28293;50.930;3.464;2024-01-11T04:37:35;38.50;;;23.98;;
42682;SDS011;28293;50.930;3.464;2024-01-11T04:40:01;44.05;;;25.83;;
42682;SDS011;28293;50.930;3.464;2024-01-11T04:42:27;38.13;;;23.58;;
42682;SDS011;28293;50.930;3.464;2024-01-11T04:44:53;40.17;;;24.23;;
42682;SDS011;28293;50.930;3.464;2024-01-11T04:47:19;42.40;;;24.42;;
42682;SDS011;28293;50.930;3.464;2024-01-11T04:49:44;41.83;;;25.33;;
42682;SDS011;28293;50.930;3.464;2024-01-11T04:52:10;44.67;;;25.35;;
42682;SDS011;28293;50.930;3.464;2024-01-11T04:54:36;43.42;;;24.17;;
42682;SDS011;28293;50.930;3.464;2024-01-11T04:57:02;39.40;;;23.98;;
42682;SDS011;28293;50.930;3.464;2024-01-11T04:59:29;41.17;;;25.27;;
42682;SDS011;28293;50.930;3.464;2024-01-11T05:01:54;43.65;;;25.10;;
42682;SDS011;28293;50.930;3.464;2024-01-11T05:04:20;43.63;;;25.33;;
42682;SDS011;28293;50.930;3.464;2024-01-11T05:06:45;42.25;;;24.90;;
42682;SDS011;28293;50.930;3.464;2024-01-11T05:09:11;41.60;;;24.80;;
42682;SDS011;28293;50.930;3.464;2024-01-11T05:11:37;40.58;;;25.58;;
42682;SDS011;28293;50.930;3.464;2024-01-11T05:14:03;42.42;;;25.65;;
42682;SDS011;28293;50.930;3.464;2024-01-11T05:16:28;42.35;;;24.40;;
42682;SDS011;28293;50.930;3.464;2024-01-11T05:18:55;43.85;;;26.95;;
42682;SDS011;28293;50.930;3.464;2024-01-11T05:21:21;41.40;;;24.67;;
42682;SDS011;28293;50.930;3.464;2024-01-11T05:23:48;41.78;;;24.73;;
42682;SDS011;28293;50.930;3.464;2024-01-11T05:26:16;46.78;;;26.33;;
42682;SDS011;28293;50.930;3.464;2024-01-11T05:28:43;42.40;;;25.15;;
42682;SDS011;28293;50.930;3.464;2024-01-11T05:31:09;39.92;;;25.20;;
42682;SDS011;28293;50.930;3.464;2024-01-11T05:33:36;44.95;;;26.05;;
42682;SDS011;28293;50.930;3.464;2024-01-11T05:36:02;43.28;;;26.45;;
42682;SDS011;28293;50.930;3.464;2024-01-11T05:38:28;40.25;;;25.27;;
42682;SDS011;28293;50.930;3.464;2024-01-11T05:40:54;43.10;;;26.10;;
42682;SDS011;28293;50.930;3.464;2024-01-11T05:43:19;45.22;;;25.27;;
42682;SDS011;28293;50.930;3.464;2024-01-11T05:45:45;43.13;;;26.00;;
42682;SDS011;28293;50.930;3.464;2024-01-11T05:48:11;42.30;;;24.58;;
42682;SDS011;28293;50.930;3.464;2024-01-11T05:50:36;42.17;;;25.48;;
42682;SDS011;28293;50.930;3.464;2024-01-11T05:53:02;45.45;;;26.40;;
42682;SDS011;28293;50.930;3.464;2024-01-11T05:55:28;43.05;;;25.17;;
42682;SDS011;28293;50.930;3.464;2024-01-11T05:57:54;43.83;;;26.58;;
42682;SDS011;28293;50.930;3.464;2024-01-11T06:00:20;45.55;;;26.88;;
42682;SDS011;28293;50.930;3.464;2024-01-11T06:02:45;45.58;;;26.58;;
42682;SDS011;28293;50.930;3.464;2024-01-11T06:05:11;41.50;;;25.30;;
42682;SDS011;28293;50.930;3.464;2024-01-11T06:07:40;43.85;;;25.95;;
42682;SDS011;28293;50.930;3.464;2024-01-11T06:10:06;44.53;;;25.55;;
42682;SDS011;28293;50.930;3.464;2024-01-11T06:12:33;44.67;;;27.65;;
42682;SDS011;28293;50.930;3.464;2024-01-11T06:15:00;43.38;;;27.05;;
42682;SDS011;28293;50.930;3.464;2024-01-11T06:17:26;46.88;;;28.00;;
42682;SDS011;28293;50.930;3.464;2024-01-11T06:19:52;44.67;;;27.48;;
42682;SDS011;28293;50.930;3.464;2024-01-11T06:22:18;47.28;;;27.17;;
42682;SDS011;28293;50.930;3.464;2024-01-11T06:24:43;43.25;;;26.27;;
42682;SDS011;28293;50.930;3.464;2024-01-11T06:27:09;45.28;;;26.23;;
42682;SDS011;28293;50.930;3.464;2024-01-11T06:29:35;46.53;;;27.75;;
42682;SDS011;28293;50.930;3.464;2024-01-11T06:32:00;44.28;;;25.33;;
42682;SDS011;28293;50.930;3.464;2024-01-11T06:34:27;43.13;;;26.08;;
42682;SDS011;28293;50.930;3.464;2024-01-11T06:36:53;46.75;;;27.40;;
42682;SDS011;28293;50.930;3.464;2024-01-11T06:39:20;43.67;;;26.95;;
42682;SDS011;28293;50.930;3.464;2024-01-11T06:41:45;42.47;;;25.10;;
42682;SDS011;28293;50.930;3.464;2024-01-11T06:44:11;46.65;;;26.95;;
42682;SDS011;28293;50.930;3.464;2024-01-11T06:46:37;48.28;;;29.00;;
42682;SDS011;28293;50.930;3.464;2024-01-11T06:49:06;48.05;;;27.85;;
42682;SDS011;28293;50.930;3.464;2024-01-11T06:51:32;53.95;;;32.03;;
42682;SDS011;28293;50.930;3.464;2024-01-11T06:53:58;45.50;;;26.95;;
42682;SDS011;28293;50.930;3.464;2024-01-11T06:56:26;46.50;;;27.92;;
42682;SDS011;28293;50.930;3.464;2024-01-11T06:58:52;55.30;;;32.67;;
42682;SDS011;28293;50.930;3.464;2024-01-11T07:01:17;48.28;;;31.13;;
42682;SDS011;28293;50.930;3.464;2024-01-11T07:03:43;42.35;;;27.60;;
42682;SDS011;28293;50.930;3.464;2024-01-11T07:06:09;43.03;;;27.05;;
42682;SDS011;28293;50.930;3.464;2024-01-11T07:08:35;47.63;;;29.58;;
42682;SDS011;28293;50.930;3.464;2024-01-11T07:11:00;47.80;;;30.33;;
42682;SDS011;28293;50.930;3.464;2024-01-11T07:13:30;55.97;;;32.88;;
42682;SDS011;28293;50.930;3.464;2024-01-11T07:15:56;50.83;;;30.90;;
42682;SDS011;28293;50.930;3.464;2024-01-11T07:18:23;48.17;;;28.45;;
42682;SDS011;28293;50.930;3.464;2024-01-11T07:20:50;44.55;;;27.20;;
42682;SDS011;28293;50.930;3.464;2024-01-11T07:23:16;44.60;;;29.15;;
42682;SDS011;28293;50.930;3.464;2024-01-11T07:25:41;46.63;;;29.35;;
42682;SDS011;28293;50.930;3.464;2024-01-11T07:28:07;50.22;;;32.70;;
42682;SDS011;28293;50.930;3.464;2024-01-11T07:30:33;49.47;;;29.38;;
42682;SDS011;28293;50.930;3.464;2024-01-11T07:32:59;47.70;;;28.48;;
42682;SDS011;28293;50.930;3.464;2024-01-11T07:35:25;50.40;;;30.77;;
42682;SDS011;28293;50.930;3.464;2024-01-11T07:37:51;49.08;;;30.17;;
42682;SDS011;28293;50.930;3.464;2024-01-11T07:40:17;54.83;;;31.52;;
42682;SDS011;28293;50.930;3.464;2024-01-11T07:42:42;59.28;;;33.55;;
42682;SDS011;28293;50.930;3.464;2024-01-11T07:45:09;56.67;;;33.53;;
42682;SDS011;28293;50.930;3.464;2024-01-11T07:47:39;63.05;;;35.85;;
42682;SDS011;28293;50.930;3.464;2024-01-11T07:50:08;60.13;;;35.85;;
42682;SDS011;28293;50.930;3.464;2024-01-11T07:52:37;54.80;;;33.35;;
42682;SDS011;28293;50.930;3.464;2024-01-11T07:55:06;68.68;;;41.35;;
42682;SDS011;28293;50.930;3.464;2024-01-11T07:57:36;63.00;;;38.22;;
42682;SDS011;28293;50.930;3.464;2024-01-11T08:00:02;69.68;;;39.38;;
42682;SDS011;28293;50.930;3.464;2024-01-11T08:02:31;62.92;;;37.67;;
42682;SDS011;28293;50.930;3.464;2024-01-11T08:04:57;64.90;;;40.17;;
42682;SDS011;28293;50.930;3.464;2024-01-11T08:07:24;61.30;;;36.92;;
42682;SDS011;28293;50.930;3.464;2024-01-11T08:09:53;70.05;;;40.50;;
42682;SDS011;28293;50.930;3.464;2024-01-11T08:12:19;60.03;;;36.65;;
42682;SDS011;28293;50.930;3.464;2024-01-11T08:14:45;55.75;;;35.30;;
42682;SDS011;28293;50.930;3.464;2024-01-11T08:17:12;59.38;;;34.30;;
42682;SDS011;28293;50.930;3.464;2024-01-11T08:19:41;49.35;;;31.45;;
42682;SDS011;28293;50.930;3.464;2024-01-11T08:22:07;47.80;;;30.17;;
42682;SDS011;28293;50.930;3.464;2024-01-11T08:24:34;45.72;;;29.85;;
42682;SDS011;28293;50.930;3.464;2024-01-11T08:27:00;49.90;;;30.00;;
42682;SDS011;28293;50.930;3.464;2024-01-11T08:29:26;50.67;;;30.83;;
42682;SDS011;28293;50.930;3.464;2024-01-11T08:31:53;50.42;;;31.67;;
42682;SDS011;28293;50.930;3.464;2024-01-11T08:34:20;60.80;;;33.97;;
42682;SDS011;28293;50.930;3.464;2024-01-11T08:36:46;60.60;;;37.45;;
42682;SDS011;28293;50.930;3.464;2024-01-11T08:39:12;53.92;;;34.33;;
42682;SDS011;28293;50.930;3.464;2024-01-11T08:41:39;56.03;;;33.35;;
42682;SDS011;28293;50.930;3.464;2024-01-11T08:44:05;51.63;;;31.52;;
42682;SDS011;28293;50.930;3.464;2024-01-11T08:46:31;51.38;;;31.20;;
42682;SDS011;28293;50.930;3.464;2024-01-11T08:48:58;54.03;;;33.03;;
42682;SDS011;28293;50.930;3.464;2024-01-11T08:51:25;48.83;;;31.40;;
42682;SDS011;28293;50.930;3.464;2024-01-11T08:53:51;50.42;;;32.08;;
42682;SDS011;28293;50.930;3.464;2024-01-11T08:56:18;50.05;;;30.40;;
42682;SDS011;28293;50.930;3.464;2024-01-11T08:58:43;48.22;;;29.73;;
42682;SDS011;28293;50.930;3.464;2024-01-11T09:01:09;48.70;;;29.90;;
42682;SDS011;28293;50.930;3.464;2024-01-11T09:03:36;46.05;;;31.20;;
42682;SDS011;28293;50.930;3.464;2024-01-11T09:06:02;50.00;;;30.70;;
42682;SDS011;28293;50.930;3.464;2024-01-11T09:08:29;50.58;;;31.13;;
42682;SDS011;28293;50.930;3.464;2024-01-11T09:10:57;44.42;;;30.20;;
42682;SDS011;28293;50.930;3.464;2024-01-11T09:13:23;53.17;;;31.80;;
42682;SDS011;28293;50.930;3.464;2024-01-11T09:15:51;47.08;;;29.23;;
42682;SDS011;28293;50.930;3.464;2024-01-11T09:18:17;48.33;;;29.55;;
42682;SDS011;28293;50.930;3.464;2024-01-11T09:20:43;48.95;;;30.05;;
42682;SDS011;28293;50.930;3.464;2024-01-11T09:23:08;45.17;;;29.20;;
42682;SDS011;28293;50.930;3.464;2024-01-11T09:25:34;48.60;;;30.50;;
42682;SDS011;28293;50.930;3.464;2024-01-11T09:28:00;49.88;;;31.05;;
42682;SDS011;28293;50.930;3.464;2024-01-11T09:30:25;49.83;;;28.25;;
42682;SDS011;28293;50.930;3.464;2024-01-11T09:32:52;48.60;;;30.63;;
42682;SDS011;28293;50.930;3.464;2024-01-11T09:35:17;49.55;;;28.70;;
42682;SDS011;28293;50.930;3.464;2024-01-11T09:37:43;48.70;;;29.48;;
42682;SDS011;28293;50.930;3.464;2024-01-11T09:40:11;48.15;;;29.05;;
42682;SDS011;28293;50.930;3.464;2024-01-11T09:42:37;50.80;;;28.58;;
42682;SDS011;28293;50.930;3.464;2024-01-11T09:45:13;47.72;;;28.98;;
42682;SDS011;28293;50.930;3.464;2024-01-11T09:47:41;46.47;;;28.27;;
42682;SDS011;28293;50.930;3.464;2024-01-11T09:50:07;44.58;;;28.88;;
42682;SDS011;28293;50.930;3.464;2024-01-11T09:52:33;44.45;;;28.05;;
42682;SDS011;28293;50.930;3.464;2024-01-11T09:54:59;43.45;;;25.10;;
42682;SDS011;28293;50.930;3.464;2024-01-11T09:57:30;45.25;;;28.33;;
42682;SDS011;28293;50.930;3.464;2024-01-11T09:59:59;48.10;;;31.13;;
42682;SDS011;28293;50.930;3.464;2024-01-11T10:02:32;45.65;;;28.50;;
42682;SDS011;28293;50.930;3.464;2024-01-11T10:04:58;44.83;;;28.23;;
42682;SDS011;28293;50.930;3.464;2024-01-11T10:07:24;49.47;;;28.85;;
42682;SDS011;28293;50.930;3.464;2024-01-11T10:09:50;40.55;;;26.65;;
42682;SDS011;28293;50.930;3.464;2024-01-11T10:12:20;46.42;;;29.05;;
42682;SDS011;28293;50.930;3.464;2024-01-11T10:14:48;47.30;;;29.42;;
42682;SDS011;28293;50.930;3.464;2024-01-11T10:17:14;43.85;;;29.30;;
42682;SDS011;28293;50.930;3.464;2024-01-11T10:19:39;48.85;;;28.75;;
42682;SDS011;28293;50.930;3.464;2024-01-11T10:22:05;45.75;;;28.38;;
42682;SDS011;28293;50.930;3.464;2024-01-11T10:24:32;45.22;;;29.70;;
42682;SDS011;28293;50.930;3.464;2024-01-11T10:26:58;46.60;;;29.45;;
42682;SDS011;28293;50.930;3.464;2024-01-11T10:29:31;48.90;;;28.58;;
42682;SDS011;28293;50.930;3.464;2024-01-11T10:31:58;42.45;;;27.95;;
42682;SDS011;28293;50.930;3.464;2024-01-11T10:34:24;46.17;;;28.90;;
42682;SDS011;28293;50.930;3.464;2024-01-11T10:36:50;44.97;;;28.13;;
42682;SDS011;28293;50.930;3.464;2024-01-11T10:39:16;47.38;;;29.95;;
42682;SDS011;28293;50.930;3.464;2024-01-11T10:41:45;48.05;;;29.33;;
42682;SDS011;28293;50.930;3.464;2024-01-11T10:44:19;49.28;;;30.20;;
42682;SDS011;28293;50.930;3.464;2024-01-11T10:46:49;43.63;;;28.23;;
42682;SDS011;28293;50.930;3.464;2024-01-11T10:49:17;48.78;;;29.95;;
42682;SDS011;28293;50.930;3.464;2024-01-11T10:52:02;45.50;;;30.20;;
42682;SDS011;28293;50.930;3.464;2024-01-11T10:54:30;46.58;;;30.08;;
42682;SDS011;28293;50.930;3.464;2024-01-11T10:56:57;44.63;;;28.83;;
42682;SDS011;28293;50.930;3.464;2024-01-11T10:59:25;47.33;;;28.52;;
42682;SDS011;28293;50.930;3.464;2024-01-11T11:01:55;45.97;;;28.67;;
42682;SDS011;28293;50.930;3.464;2024-01-11T11:04:23;41.95;;;28.38;;
42682;SDS011;28293;50.930;3.464;2024-01-11T11:06:56;43.97;;;29.05;;
42682;SDS011;28293;50.930;3.464;2024-01-11T11:09:22;41.72;;;28.10;;
42682;SDS011;28293;50.930;3.464;2024-01-11T11:11:50;42.58;;;28.00;;
42682;SDS011;28293;50.930;3.464;2024-01-11T11:14:21;45.60;;;29.95;;
42682;SDS011;28293;50.930;3.464;2024-01-11T11:16:48;42.60;;;27.75;;
42682;SDS011;28293;50.930;3.464;2024-01-11T11:19:14;44.20;;;28.45;;
42682;SDS011;28293;50.930;3.464;2024-01-11T11:21:43;48.50;;;29.45;;
42682;SDS011;28293;50.930;3.464;2024-01-11T11:24:10;49.75;;;31.83;;
42682;SDS011;28293;50.930;3.464;2024-01-11T11:26:39;50.22;;;30.35;;
42682;SDS011;28293;50.930;3.464;2024-01-11T11:29:05;45.90;;;28.90;;
42682;SDS011;28293;50.930;3.464;2024-01-11T11:31:34;44.05;;;28.55;;
42682;SDS011;28293;50.930;3.464;2024-01-11T11:34:06;43.72;;;29.30;;
42682;SDS011;28293;50.930;3.464;2024-01-11T11:36:32;40.53;;;26.98;;
42682;SDS011;28293;50.930;3.464;2024-01-11T11:38:59;48.28;;;29.13;;
42682;SDS011;28293;50.930;3.464;2024-01-11T11:41:26;42.83;;;26.75;;
42682;SDS011;28293;50.930;3.464;2024-01-11T11:43:52;43.88;;;28.60;;
42682;SDS011;28293;50.930;3.464;2024-01-11T11:46:18;41.15;;;26.80;;
42682;SDS011;28293;50.930;3.464;2024-01-11T11:48:48;40.28;;;26.52;;
42682;SDS011;28293;50.930;3.464;2024-01-11T11:51:16;43.03;;;28.10;;
42682;SDS011;28293;50.930;3.464;2024-01-11T11:53:46;44.08;;;27.83;;
42682;SDS011;28293;50.930;3.464;2024-01-11T11:56:13;42.10;;;29.42;;
42682;SDS011;28293;50.930;3.464;2024-01-11T11:58:42;37.00;;;24.77;;
42682;SDS011;28293;50.930;3.464;2024-01-11T12:01:09;48.22;;;24.58;;
42682;SDS011;28293;50.930;3.464;2024-01-11T12:03:35;41.67;;;26.38;;
42682;SDS011;28293;50.930;3.464;2024-01-11T12:06:03;40.53;;;27.27;;
42682;SDS011;28293;50.930;3.464;2024-01-11T12:08:41;41.38;;;26.77;;
42682;SDS011;28293;50.930;3.464;2024-01-11T12:11:07;40.60;;;27.30;;
42682;SDS011;28293;50.930;3.464;2024-01-11T12:13:33;39.58;;;25.10;;
42682;SDS011;28293;50.930;3.464;2024-01-11T12:15:59;39.08;;;26.63;;
42682;SDS011;28293;50.930;3.464;2024-01-11T12:18:25;35.95;;;24.45;;
42682;SDS011;28293;50.930;3.464;2024-01-11T12:20:50;39.15;;;24.70;;
42682;SDS011;28293;50.930;3.464;2024-01-11T12:23:18;36.40;;;24.80;;
42682;SDS011;28293;50.930;3.464;2024-01-11T12:25:44;35.40;;;23.67;;
42682;SDS011;28293;50.930;3.464;2024-01-11T12:28:10;41.17;;;25.58;;
42682;SDS011;28293;50.930;3.464;2024-01-11T12:30:36;41.00;;;27.52;;
42682;SDS011;28293;50.930;3.464;2024-01-11T12:33:03;40.75;;;25.08;;
42682;SDS011;28293;50.930;3.464;2024-01-11T12:35:30;39.92;;;26.85;;
42682;SDS011;28293;50.930;3.464;2024-01-11T12:38:05;35.63;;;24.95;;
42682;SDS011;28293;50.930;3.464;2024-01-11T12:40:32;39.20;;;26.38;;
42682;SDS011;28293;50.930;3.464;2024-01-11T12:42:59;31.33;;;22.30;;
42682;SDS011;28293;50.930;3.464;2024-01-11T12:45:25;39.95;;;25.23;;
42682;SDS011;28293;50.930;3.464;2024-01-11T12:47:51;34.97;;;24.27;;
42682;SDS011;28293;50.930;3.464;2024-01-11T12:50:18;37.80;;;23.48;;
42682;SDS011;28293;50.930;3.464;2024-01-11T12:52:45;39.08;;;24.67;;
42682;SDS011;28293;50.930;3.464;2024-01-11T12:55:17;40.72;;;26.45;;
42682;SDS011;28293;50.930;3.464;2024-01-11T12:57:44;40.17;;;26.65;;
42682;SDS011;28293;50.930;3.464;2024-01-11T13:00:13;37.45;;;24.00;;
42682;SDS011;28293;50.930;3.464;2024-01-11T13:02:42;39.60;;;26.20;;
42682;SDS011;28293;50.930;3.464;2024-01-11T13:05:11;39.60;;;26.17;;
42682;SDS011;28293;50.930;3.464;2024-01-11T13:07:37;38.67;;;25.88;;
42682;SDS011;28293;50.930;3.464;2024-01-11T13:10:02;38.80;;;25.30;;
42682;SDS011;28293;50.930;3.464;2024-01-11T13:12:29;40.65;;;27.15;;
42682;SDS011;28293;50.930;3.464;2024-01-11T13:14:55;42.17;;;26.75;;
42682;SDS011;28293;50.930;3.464;2024-01-11T13:17:21;45.63;;;27.70;;
42682;SDS011;28293;50.930;3.464;2024-01-11T13:19:47;37.08;;;25.02;;
42682;SDS011;28293;50.930;3.464;2024-01-11T13:22:12;38.03;;;25.10;;
42682;SDS011;28293;50.930;3.464;2024-01-11T13:24:38;36.20;;;25.90;;
42682;SDS011;28293;50.930;3.464;2024-01-11T13:27:03;43.28;;;27.27;;
42682;SDS011;28293;50.930;3.464;2024-01-11T13:29:29;41.75;;;25.80;;
42682;SDS011;28293;50.930;3.464;2024-01-11T13:31:55;42.60;;;27.55;;
42682;SDS011;28293;50.930;3.464;2024-01-11T13:34:21;44.65;;;28.80;;
42682;SDS011;28293;50.930;3.464;2024-01-11T13:36:46;38.20;;;24.95;;
42682;SDS011;28293;50.930;3.464;2024-01-11T13:39:12;37.35;;;23.15;;
42682;SDS011;28293;50.930;3.464;2024-01-11T13:41:38;36.58;;;19.98;;
42682;SDS011;28293;50.930;3.464;2024-01-11T13:44:05;31.83;;;19.88;;
42682;SDS011;28293;50.930;3.464;2024-01-11T13:46:32;31.55;;;20.95;;
42682;SDS011;28293;50.930;3.464;2024-01-11T13:48:58;36.15;;;19.75;;
42682;SDS011;28293;50.930;3.464;2024-01-11T13:51:23;35.15;;;20.73;;
42682;SDS011;28293;50.930;3.464;2024-01-11T13:53:49;32.90;;;20.83;;
42682;SDS011;28293;50.930;3.464;2024-01-11T13:56:15;29.27;;;18.05;;
42682;SDS011;28293;50.930;3.464;2024-01-11T13:58:41;28.45;;;18.67;;
42682;SDS011;28293;50.930;3.464;2024-01-11T14:01:06;28.60;;;18.60;;
42682;SDS011;28293;50.930;3.464;2024-01-11T14:03:33;31.80;;;20.98;;
42682;SDS011;28293;50.930;3.464;2024-01-11T14:05:59;35.65;;;20.63;;
42682;SDS011;28293;50.930;3.464;2024-01-11T14:08:25;33.13;;;20.35;;
42682;SDS011;28293;50.930;3.464;2024-01-11T14:10:51;34.05;;;19.73;;
42682;SDS011;28293;50.930;3.464;2024-01-11T14:13:19;32.80;;;21.17;;
42682;SDS011;28293;50.930;3.464;2024-01-11T14:15:45;32.33;;;20.25;;
42682;SDS011;28293;50.930;3.464;2024-01-11T14:18:13;34.60;;;20.65;;